Time;durP1;ratioP1;P1;durP2;ratioP2;P2;SDS_P1;SDS_P2;PMS_P1;PMS_P2;Temp;Humidity;BMP_temperature;BMP_pressure;BME280_temperature;BME280_humidity;BME280_pressure;Samples;Min_cycle;Max_cycle;Signal;HPM_P1;HPM_P2
2023/01/20 00:02:17;;;;;;;6.27;4.50;;;2.40;99.90;;;;;;5070904;28;20226;-71
2023/01/20 00:04:42;;;;;;;8.03;5.53;;;2.40;99.90;;;;;;5070197;28;20210;-71
2023/01/20 00:07:08;;;;;;;13.83;4.87;;;2.40;99.90;;;;;;5069776;28;20231;-71
2023/01/20 00:09:34;;;;;;;7.53;5.00;;;2.30;99.90;;;;;;5074160;28;20202;-71
2023/01/20 00:12:00;;;;;;;7.27;5.83;;;2.00;99.90;;;;;;5076734;28;20461;-71
2023/01/20 00:14:26;;;;;;;9.23;4.60;;;1.50;99.90;;;;;;5089822;28;20207;-70
2023/01/20 00:16:52;;;;;;;8.47;4.27;;;1.40;99.90;;;;;;5091147;28;20686;-70
2023/01/20 00:19:18;;;;;;;6.20;4.57;;;1.40;99.90;;;;;;5088321;28;20507;-70
2023/01/20 00:21:43;;;;;;;8.30;4.40;;;1.60;99.90;;;;;;5087405;28;20218;-69
2023/01/20 00:24:09;;;;;;;5.30;4.47;;;1.60;99.90;;;;;;5107343;28;20293;-71
2023/01/20 00:26:35;;;;;;;5.17;4.00;;;1.60;99.90;;;;;;5080770;28;20219;-71
2023/01/20 00:29:00;;;;;;;8.07;4.77;;;1.60;99.90;;;;;;5088458;28;20264;-71
2023/01/20 00:31:29;;;;;;;6.87;4.83;;;1.60;99.90;;;;;;5082229;28;20271;-70
2023/01/20 00:33:57;;;;;;;6.10;3.60;;;1.70;99.90;;;;;;5077597;28;20210;-70
2023/01/20 00:36:24;;;;;;;7.07;4.77;;;1.90;99.90;;;;;;5059901;28;20453;-70
2023/01/20 00:38:50;;;;;;;7.50;4.53;;;2.00;99.90;;;;;;5077784;28;20549;-71
2023/01/20 00:41:16;;;;;;;9.00;4.23;;;1.90;99.90;;;;;;5068502;28;20473;-71
2023/01/20 00:43:42;;;;;;;5.70;4.60;;;1.80;99.90;;;;;;5071403;28;20457;-70
2023/01/20 00:46:08;;;;;;;4.57;3.80;;;1.60;99.90;;;;;;5070660;28;20227;-71
2023/01/20 00:48:34;;;;;;;5.87;4.63;;;1.50;99.90;;;;;;5089338;28;20471;-71
2023/01/20 00:51:01;;;;;;;7.13;4.70;;;1.70;99.90;;;;;;5074897;28;20233;-70
2023/01/20 00:53:27;;;;;;;10.57;4.00;;;1.70;99.90;;;;;;5072388;28;20483;-70
2023/01/20 00:55:52;;;;;;;4.17;3.60;;;1.80;99.90;;;;;;5100569;28;20468;-70
2023/01/20 00:58:18;;;;;;;4.67;4.17;;;1.90;99.90;;;;;;5094723;28;21043;-71
2023/01/20 01:00:48;;;;;;;8.63;4.00;;;1.90;99.90;;;;;;5059890;28;20253;-70
2023/01/20 01:03:14;;;;;;;6.20;3.97;;;1.90;99.90;;;;;;5079115;28;20211;-71
2023/01/20 01:05:40;;;;;;;6.20;4.33;;;2.00;99.90;;;;;;5064953;28;20524;-71
2023/01/20 01:08:06;;;;;;;6.70;4.70;;;2.10;99.90;;;;;;5081609;28;20559;-70
2023/01/20 01:10:32;;;;;;;5.07;3.33;;;2.10;99.90;;;;;;5071502;28;20314;-72
2023/01/20 01:12:59;;;;;;;6.70;3.57;;;2.10;99.90;;;;;;5072247;28;20249;-71
2023/01/20 01:15:26;;;;;;;7.00;3.47;;;2.10;99.90;;;;;;5087523;28;20206;-71
2023/01/20 01:17:51;;;;;;;7.67;4.57;;;2.10;99.90;;;;;;5069633;28;20474;-70
2023/01/20 01:20:17;;;;;;;9.97;4.93;;;2.10;99.90;;;;;;5070388;28;20529;-70
2023/01/20 01:22:43;;;;;;;11.47;4.37;;;2.10;99.90;;;;;;5080833;28;20532;-70
2023/01/20 01:25:09;;;;;;;6.90;4.23;;;2.10;99.90;;;;;;5081684;28;20221;-71
2023/01/20 01:27:35;;;;;;;5.77;3.93;;;2.10;99.90;;;;;;5079930;28;20222;-69
2023/01/20 01:30:01;;;;;;;4.50;3.83;;;2.10;99.90;;;;;;5088960;28;20210;-70
2023/01/20 01:32:27;;;;;;;6.30;4.43;;;2.10;99.90;;;;;;5085403;28;20460;-71
2023/01/20 01:34:53;;;;;;;11.67;3.70;;;1.90;99.90;;;;;;5079916;28;20233;-71
2023/01/20 01:37:18;;;;;;;6.23;4.40;;;2.00;99.90;;;;;;5080771;28;20944;-71
2023/01/20 01:39:44;;;;;;;9.50;5.13;;;2.00;99.90;;;;;;5084489;28;20215;-71
2023/01/20 01:42:15;;;;;;;7.90;3.93;;;2.10;99.90;;;;;;5084256;28;20219;-70
2023/01/20 01:45:16;;;;;;;4.40;3.57;;;2.10;99.90;;;;;;5060260;28;20242;-70
2023/01/20 01:47:43;;;;;;;7.23;4.00;;;2.00;99.90;;;;;;5070032;28;20442;-71
2023/01/20 01:50:15;;;;;;;8.60;3.63;;;2.00;99.90;;;;;;5084734;28;20475;-71
2023/01/20 01:52:45;;;;;;;7.70;4.30;;;2.10;99.90;;;;;;5093828;28;20947;-70
2023/01/20 01:55:14;;;;;;;6.80;4.20;;;2.00;99.90;;;;;;5076156;28;20501;-70
2023/01/20 01:57:40;;;;;;;5.63;4.20;;;1.90;99.90;;;;;;5094235;28;20488;-71
2023/01/20 02:00:07;;;;;;;6.50;4.30;;;1.80;99.90;;;;;;5081849;28;20453;-70
2023/01/20 02:02:40;;;;;;;6.60;3.60;;;1.80;99.90;;;;;;5060312;28;20500;-71
2023/01/20 02:05:06;;;;;;;5.37;3.77;;;1.90;99.90;;;;;;5065548;28;20549;-70
2023/01/20 02:07:32;;;;;;;7.10;4.27;;;2.00;99.90;;;;;;5070612;28;20433;-71
2023/01/20 02:09:59;;;;;;;5.20;4.03;;;2.00;99.90;;;;;;5089335;28;20463;-70
2023/01/20 02:12:25;;;;;;;8.00;4.67;;;2.00;99.90;;;;;;5089336;28;20986;-70
2023/01/20 02:14:54;;;;;;;5.07;3.63;;;2.00;99.90;;;;;;5106492;28;20448;-71
2023/01/20 02:17:29;;;;;;;7.23;4.20;;;2.00;99.90;;;;;;5061544;28;20286;-71
2023/01/20 02:20:17;;;;;;;5.43;4.10;;;2.00;99.90;;;;;;5075205;28;21024;-69
2023/01/20 02:22:54;;;;;;;5.63;3.37;;;2.00;99.90;;;;;;5072971;28;20518;-70
2023/01/20 02:25:41;;;;;;;6.60;4.17;;;1.90;99.90;;;;;;5086979;28;20452;-71
2023/01/20 02:28:31;;;;;;;5.83;3.53;;;2.00;99.90;;;;;;5073446;28;20469;-70
2023/01/20 02:31:42;;;;;;;7.63;4.20;;;2.00;99.90;;;;;;5056475;28;20446;-71
2023/01/20 02:34:31;;;;;;;4.80;3.70;;;2.00;99.90;;;;;;5066606;28;20447;-70
2023/01/20 02:37:02;;;;;;;7.00;4.50;;;2.00;99.90;;;;;;5070698;28;20448;-70
2023/01/20 02:39:38;;;;;;;6.20;4.70;;;1.90;99.90;;;;;;5091252;28;20471;-71
2023/01/20 02:42:17;;;;;;;6.83;4.23;;;1.80;99.90;;;;;;5092998;28;20862;-71
2023/01/20 02:44:58;;;;;;;7.17;5.03;;;1.90;99.90;;;;;;5082375;28;20464;-71
2023/01/20 02:47:42;;;;;;;4.87;3.30;;;1.80;99.90;;;;;;5073860;28;20449;-71
2023/01/20 02:50:07;;;;;;;7.90;5.30;;;1.80;99.90;;;;;;5078966;28;20461;-71
2023/01/20 02:52:43;;;;;;;7.70;3.53;;;1.80;99.90;;;;;;5101921;28;20440;-71
2023/01/20 02:55:14;;;;;;;4.67;4.10;;;1.80;99.90;;;;;;5066145;28;20203;-71
2023/01/20 02:58:03;;;;;;;7.10;4.20;;;1.80;99.90;;;;;;5073003;28;20461;-70
2023/01/20 03:00:38;;;;;;;9.23;4.00;;;1.80;99.90;;;;;;5051535;28;20449;-71
2023/01/20 03:03:09;;;;;;;5.47;4.33;;;1.80;99.90;;;;;;5068940;28;20469;-71
2023/01/20 03:05:41;;;;;;;9.93;5.23;;;1.70;99.90;;;;;;5077381;28;20449;-71
2023/01/20 03:08:10;;;;;;;6.30;4.87;;;1.60;99.90;;;;;;5077111;28;20484;-71
2023/01/20 03:10:37;;;;;;;6.80;4.47;;;1.60;99.90;;;;;;5055165;28;20513;-71
2023/01/20 03:13:18;;;;;;;6.80;4.83;;;1.60;99.90;;;;;;5079888;28;20479;-70
2023/01/20 03:16:15;;;;;;;7.67;4.23;;;1.60;99.90;;;;;;5091592;28;20448;-70
2023/01/20 03:18:41;;;;;;;9.10;5.03;;;1.60;99.90;;;;;;5077576;28;20452;-70
2023/01/20 03:21:09;;;;;;;7.77;4.93;;;1.50;99.90;;;;;;5084831;28;20862;-70
2023/01/20 03:23:37;;;;;;;6.20;3.90;;;1.50;99.90;;;;;;5079624;28;20211;-71
2023/01/20 03:26:07;;;;;;;6.40;4.00;;;1.60;99.90;;;;;;5071881;28;20506;-71
2023/01/20 03:28:33;;;;;;;9.20;5.07;;;1.60;99.90;;;;;;5071071;28;20450;-71
2023/01/20 03:31:00;;;;;;;6.40;4.50;;;1.60;99.90;;;;;;5071766;28;20530;-71
2023/01/20 03:33:26;;;;;;;9.23;4.80;;;1.60;99.90;;;;;;5071162;28;20211;-71
2023/01/20 03:35:53;;;;;;;7.63;4.33;;;1.60;99.90;;;;;;5071914;28;20453;-70
2023/01/20 03:38:19;;;;;;;6.23;4.57;;;1.60;99.90;;;;;;5080907;28;20232;-71
2023/01/20 03:40:52;;;;;;;6.67;4.07;;;1.60;99.90;;;;;;5091135;28;20444;-71
2023/01/20 03:43:35;;;;;;;12.27;4.93;;;1.60;99.90;;;;;;5078411;28;20213;-71
2023/01/20 03:46:19;;;;;;;6.10;3.90;;;1.60;99.90;;;;;;5082963;28;20486;-70
2023/01/20 03:49:00;;;;;;;7.20;4.73;;;1.60;99.90;;;;;;5092501;28;20535;-70
2023/01/20 03:51:33;;;;;;;5.47;3.63;;;1.60;99.90;;;;;;5079412;28;20553;-71
2023/01/20 03:54:09;;;;;;;8.43;4.30;;;1.60;99.90;;;;;;5091603;28;20456;-70
2023/01/20 03:56:39;;;;;;;6.67;4.03;;;1.60;99.90;;;;;;5087274;28;20530;-70
2023/01/20 03:59:07;;;;;;;7.40;4.50;;;1.60;99.90;;;;;;5067025;28;20466;-71
2023/01/20 04:01:38;;;;;;;6.63;4.40;;;1.60;99.90;;;;;;5078370;28;20477;-71
2023/01/20 04:04:08;;;;;;;8.90;4.63;;;1.60;99.90;;;;;;5069873;28;20447;-71
2023/01/20 04:06:35;;;;;;;9.53;4.77;;;1.60;99.90;;;;;;5090958;28;20440;-70
2023/01/20 04:09:32;;;;;;;7.03;4.33;;;1.50;99.90;;;;;;5087964;28;20445;-70
2023/01/20 04:11:58;;;;;;;9.90;5.57;;;1.50;99.90;;;;;;5079705;28;20457;-70
2023/01/20 04:14:23;;;;;;;9.10;5.00;;;1.60;99.90;;;;;;5081799;28;20456;-70
2023/01/20 04:16:52;;;;;;;10.87;4.77;;;1.50;99.90;;;;;;5064019;28;20465;-71
2023/01/20 04:19:18;;;;;;;6.77;4.20;;;1.60;99.90;;;;;;5089008;28;20226;-70
2023/01/20 04:21:49;;;;;;;7.63;5.30;;;1.60;99.90;;;;;;5070672;28;20507;-69
2023/01/20 04:24:37;;;;;;;6.37;5.00;;;1.50;99.90;;;;;;5053909;28;20239;-70
2023/01/20 04:27:02;;;;;;;12.30;4.47;;;1.60;99.90;;;;;;5070058;28;20953;-71
2023/01/20 04:29:28;;;;;;;8.17;4.83;;;1.60;99.90;;;;;;5063545;28;20465;-71
2023/01/20 04:31:58;;;;;;;7.27;4.50;;;1.60;99.90;;;;;;5090878;28;20237;-70
2023/01/20 04:34:24;;;;;;;6.73;4.67;;;1.60;99.90;;;;;;5075156;28;20218;-70
2023/01/20 04:36:50;;;;;;;8.70;4.37;;;1.60;99.90;;;;;;5078390;28;20452;-70
2023/01/20 04:39:15;;;;;;;6.60;4.10;;;1.60;99.90;;;;;;5079109;28;20226;-70
2023/01/20 04:41:41;;;;;;;7.80;4.60;;;1.60;99.90;;;;;;5090409;28;20238;-70
2023/01/20 04:44:07;;;;;;;7.23;4.30;;;1.60;99.90;;;;;;5072303;28;20211;-71
2023/01/20 04:46:32;;;;;;;7.10;4.93;;;1.60;99.90;;;;;;5055421;28;20211;-71
2023/01/20 04:48:58;;;;;;;6.17;4.47;;;1.60;99.90;;;;;;5072947;28;20252;-70
2023/01/20 04:51:24;;;;;;;6.60;5.17;;;1.60;99.90;;;;;;5098745;28;20214;-70
2023/01/20 04:53:49;;;;;;;5.70;4.40;;;1.60;99.90;;;;;;5090124;28;20693;-69
2023/01/20 04:56:15;;;;;;;7.40;4.93;;;1.50;99.90;;;;;;5077569;28;20210;-70
2023/01/20 04:58:56;;;;;;;5.33;4.13;;;1.60;99.90;;;;;;5073126;28;20241;-69
2023/01/20 05:01:22;;;;;;;10.03;4.70;;;1.50;99.90;;;;;;5088316;28;20488;-69
2023/01/20 05:03:47;;;;;;;6.07;3.90;;;1.50;99.90;;;;;;5091933;28;20297;-69
2023/01/20 05:06:13;;;;;;;4.70;3.87;;;1.50;99.90;;;;;;5078448;28;20537;-69
2023/01/20 05:08:39;;;;;;;7.83;4.10;;;1.50;99.90;;;;;;5069779;28;20215;-69
2023/01/20 05:11:05;;;;;;;7.00;4.60;;;1.50;99.90;;;;;;5072366;28;20485;-71
2023/01/20 05:13:32;;;;;;;7.50;3.87;;;1.50;99.90;;;;;;5088770;28;20207;-69
2023/01/20 05:15:58;;;;;;;8.23;5.80;;;1.60;99.90;;;;;;5089950;28;20210;-69
2023/01/20 05:18:23;;;;;;;9.33;5.27;;;1.50;99.90;;;;;;5089361;28;20868;-70
2023/01/20 05:20:49;;;;;;;7.33;4.90;;;1.50;99.90;;;;;;5068767;28;20234;-70
2023/01/20 05:23:16;;;;;;;6.77;4.00;;;1.60;99.90;;;;;;5088786;28;20568;-70
2023/01/20 05:25:41;;;;;;;6.00;4.20;;;1.60;99.90;;;;;;5091112;28;20214;-70
2023/01/20 05:28:08;;;;;;;7.30;4.67;;;1.60;99.90;;;;;;5090929;28;20455;-71
2023/01/20 05:30:33;;;;;;;8.20;5.87;;;1.60;99.90;;;;;;5089428;28;20222;-67
2023/01/20 05:32:59;;;;;;;6.60;4.97;;;1.60;99.90;;;;;;5106166;28;20456;-70
2023/01/20 05:35:25;;;;;;;16.43;6.80;;;1.60;99.90;;;;;;5090854;28;20690;-70
2023/01/20 05:37:54;;;;;;;8.60;5.57;;;1.60;99.90;;;;;;5089484;28;20226;-70
2023/01/20 05:40:20;;;;;;;11.73;6.40;;;1.60;99.90;;;;;;5087874;28;20582;-70
2023/01/20 05:42:46;;;;;;;9.37;6.33;;;1.60;99.90;;;;;;5089245;28;20448;-68
2023/01/20 05:45:11;;;;;;;10.20;6.77;;;1.60;99.90;;;;;;5085824;28;20567;-70
2023/01/20 05:47:37;;;;;;;17.50;9.20;;;1.60;99.90;;;;;;5053029;28;20234;-71
2023/01/20 05:50:04;;;;;;;25.53;10.33;;;1.60;99.90;;;;;;5067110;28;20230;-70
2023/01/20 05:52:30;;;;;;;14.07;7.97;;;1.60;99.90;;;;;;5061692;28;20241;-70
2023/01/20 05:54:55;;;;;;;13.57;7.53;;;1.60;99.90;;;;;;5065235;28;20442;-69
2023/01/20 05:57:24;;;;;;;8.13;6.30;;;1.60;99.90;;;;;;5066172;28;20977;-69
2023/01/20 05:59:51;;;;;;;9.83;6.33;;;1.60;99.90;;;;;;5068830;28;20249;-71
2023/01/20 06:02:18;;;;;;;12.30;7.33;;;1.60;99.90;;;;;;5065411;28;20449;-69
2023/01/20 06:04:45;;;;;;;8.07;5.53;;;1.50;99.90;;;;;;5069332;28;20528;-69
2023/01/20 06:07:11;;;;;;;11.93;6.50;;;1.50;99.90;;;;;;5048427;28;20544;-70
2023/01/20 06:09:37;;;;;;;14.83;6.00;;;1.60;99.90;;;;;;5051966;28;20533;-70
2023/01/20 06:12:02;;;;;;;8.20;5.93;;;1.60;99.90;;;;;;5046681;28;20222;-68
2023/01/20 06:14:28;;;;;;;24.97;14.80;;;1.60;99.90;;;;;;5064470;28;20219;-69
2023/01/20 06:16:54;;;;;;;56.77;33.73;;;1.60;99.90;;;;;;5059922;28;20269;-68
2023/01/20 06:19:19;;;;;;;48.87;35.30;;;1.50;99.90;;;;;;5056443;28;20226;-70
2023/01/20 06:21:46;;;;;;;30.10;22.43;;;1.50;99.90;;;;;;5065658;28;20817;-67
2023/01/20 06:24:12;;;;;;;22.00;14.40;;;1.50;99.90;;;;;;5057869;28;20234;-68
2023/01/20 06:26:37;;;;;;;19.77;12.80;;;1.50;99.90;;;;;;5038410;28;20958;-70
2023/01/20 06:29:03;;;;;;;17.23;12.70;;;1.50;99.90;;;;;;5030617;28;20298;-70
2023/01/20 06:31:29;;;;;;;13.70;10.70;;;1.50;99.90;;;;;;5060874;28;20365;-69
2023/01/20 06:33:57;;;;;;;11.60;8.47;;;1.50;99.90;;;;;;5051455;28;20215;-69
2023/01/20 06:36:23;;;;;;;9.37;6.80;;;1.50;99.90;;;;;;5051028;28;20273;-67
2023/01/20 06:38:51;;;;;;;12.67;7.20;;;1.50;99.90;;;;;;5068328;28;20465;-69
2023/01/20 06:41:19;;;;;;;7.10;6.40;;;1.50;99.90;;;;;;5065003;28;20233;-69
2023/01/20 06:43:45;;;;;;;9.37;6.50;;;1.50;99.90;;;;;;5056407;28;20445;-69
2023/01/20 06:46:12;;;;;;;10.10;6.30;;;1.60;99.90;;;;;;5045554;28;20540;-69
2023/01/20 06:48:39;;;;;;;15.33;9.10;;;1.60;99.90;;;;;;5065333;28;20453;-68
2023/01/20 06:51:10;;;;;;;11.87;8.30;;;1.60;99.90;;;;;;5084852;28;20466;-70
2023/01/20 06:53:36;;;;;;;11.07;7.57;;;1.60;99.90;;;;;;5058041;28;20448;-70
2023/01/20 06:56:01;;;;;;;9.50;7.17;;;1.50;99.90;;;;;;5063530;28;20461;-70
2023/01/20 06:58:29;;;;;;;11.80;7.70;;;1.60;99.90;;;;;;5084003;28;20333;-70
2023/01/20 07:00:56;;;;;;;9.90;6.10;;;1.60;99.90;;;;;;5064326;28;20759;-69
2023/01/20 07:03:22;;;;;;;13.90;7.87;;;1.60;99.90;;;;;;5056232;28;20437;-70
2023/01/20 07:05:59;;;;;;;11.10;7.33;;;1.60;99.90;;;;;;5058551;28;20471;-69
2023/01/20 07:08:24;;;;;;;10.43;6.93;;;1.50;99.90;;;;;;5085490;28;20600;-69
2023/01/20 07:10:50;;;;;;;14.83;9.23;;;1.50;99.90;;;;;;5074000;28;20466;-70
2023/01/20 07:13:16;;;;;;;9.40;6.97;;;1.50;99.90;;;;;;5079265;28;20252;-69
2023/01/20 07:15:41;;;;;;;16.97;7.40;;;1.50;99.90;;;;;;5064196;28;20666;-71
2023/01/20 07:18:07;;;;;;;13.40;6.90;;;1.50;99.90;;;;;;5086771;28;20246;-70
2023/01/20 07:20:32;;;;;;;11.13;6.97;;;1.50;99.90;;;;;;5085459;28;20210;-69
2023/01/20 07:22:59;;;;;;;13.13;7.17;;;1.40;99.90;;;;;;5090333;28;20265;-69
2023/01/20 07:25:25;;;;;;;12.50;7.50;;;1.30;99.90;;;;;;5091205;28;20207;-69
2023/01/20 07:27:50;;;;;;;11.47;7.50;;;1.40;99.90;;;;;;5088351;28;20506;-69
2023/01/20 07:30:16;;;;;;;10.03;7.47;;;1.40;99.90;;;;;;5078056;28;20219;-68
2023/01/20 07:32:42;;;;;;;16.53;8.10;;;1.40;99.90;;;;;;5087822;28;20246;-70
2023/01/20 07:35:08;;;;;;;14.90;8.00;;;1.50;99.90;;;;;;5062611;28;20486;-70
2023/01/20 07:37:34;;;;;;;15.00;9.30;;;1.50;99.90;;;;;;5053282;28;20239;-70
2023/01/20 07:40:00;;;;;;;16.23;8.87;;;1.50;99.90;;;;;;5070549;28;20459;-67
2023/01/20 07:42:25;;;;;;;19.13;8.87;;;1.60;99.90;;;;;;5073046;28;20227;-70
2023/01/20 07:44:52;;;;;;;18.73;8.53;;;1.50;99.90;;;;;;5091568;28;20445;-69
2023/01/20 07:47:18;;;;;;;13.63;9.03;;;1.60;99.90;;;;;;5075016;28;20967;-70
2023/01/20 07:49:43;;;;;;;12.40;7.20;;;1.60;99.90;;;;;;5093521;28;20216;-70
2023/01/20 07:52:09;;;;;;;12.43;7.27;;;1.60;99.90;;;;;;5103305;28;20389;-70
2023/01/20 07:54:35;;;;;;;13.47;6.20;;;1.60;99.90;;;;;;5075828;28;20214;-70
2023/01/20 07:57:00;;;;;;;110.87;37.73;;;1.70;99.90;;;;;;5089896;28;20214;-70
2023/01/20 07:59:27;;;;;;;138.43;58.77;;;1.60;99.90;;;;;;5081780;28;20309;-69
2023/01/20 08:01:53;;;;;;;44.43;25.50;;;1.60;99.90;;;;;;5078568;28;20223;-70
2023/01/20 08:04:19;;;;;;;29.83;15.47;;;1.60;99.90;;;;;;5053881;28;20457;-70
2023/01/20 08:06:44;;;;;;;37.93;19.60;;;1.60;99.90;;;;;;5082115;28;20641;-69
2023/01/20 08:09:11;;;;;;;37.37;20.93;;;1.60;99.90;;;;;;5060715;28;20286;-70
2023/01/20 08:11:37;;;;;;;31.23;17.03;;;1.60;99.90;;;;;;5069715;28;20223;-71
2023/01/20 08:14:03;;;;;;;26.13;12.27;;;1.70;99.90;;;;;;5075058;28;20504;-70
2023/01/20 08:16:29;;;;;;;16.03;10.77;;;1.60;99.90;;;;;;5072740;28;20460;-70
2023/01/20 08:18:54;;;;;;;13.40;9.43;;;1.60;99.90;;;;;;5088904;28;20465;-70
2023/01/20 08:21:31;;;;;;;14.67;8.87;;;1.60;99.90;;;;;;5082871;28;20239;-71
2023/01/20 08:23:59;;;;;;;15.47;8.60;;;1.60;99.90;;;;;;5080284;28;20302;-70
2023/01/20 08:26:28;;;;;;;16.53;8.43;;;1.60;99.90;;;;;;5078908;28;20425;-70
2023/01/20 08:28:55;;;;;;;13.70;7.63;;;1.60;99.90;;;;;;5066235;28;20822;-70
2023/01/20 08:31:23;;;;;;;8.57;5.10;;;1.60;99.90;;;;;;5078567;28;20461;-70
2023/01/20 08:33:53;;;;;;;9.07;5.93;;;1.60;99.90;;;;;;5070443;28;20591;-67
2023/01/20 08:36:22;;;;;;;8.40;5.43;;;1.70;99.90;;;;;;5090322;28;20556;-69
2023/01/20 08:38:47;;;;;;;16.77;5.67;;;1.70;99.90;;;;;;5078484;28;20461;-70
2023/01/20 08:41:20;;;;;;;9.80;5.80;;;1.70;99.90;;;;;;5089563;28;20491;-70
2023/01/20 08:43:46;;;;;;;14.43;7.67;;;1.70;99.90;;;;;;5098068;28;20317;-70
2023/01/20 08:46:13;;;;;;;12.43;6.53;;;1.70;99.90;;;;;;5094446;28;20553;-70
2023/01/20 08:48:40;;;;;;;22.67;12.77;;;1.70;99.90;;;;;;5084596;28;20453;-69
2023/01/20 08:51:10;;;;;;;25.20;14.87;;;1.80;99.90;;;;;;5087919;28;20465;-69
2023/01/20 08:53:36;;;;;;;28.40;13.60;;;1.80;99.90;;;;;;5098517;28;20486;-69
2023/01/20 08:56:03;;;;;;;32.83;15.20;;;1.80;99.90;;;;;;5072010;28;20445;-69
2023/01/20 08:58:29;;;;;;;30.63;16.40;;;1.80;99.90;;;;;;5088678;28;20245;-71
2023/01/20 09:00:55;;;;;;;22.83;12.63;;;1.80;99.90;;;;;;5092595;28;20542;-70
2023/01/20 09:03:22;;;;;;;21.33;10.57;;;1.80;99.90;;;;;;5089550;28;20964;-70
2023/01/20 09:05:48;;;;;;;22.90;10.73;;;1.80;99.90;;;;;;5099048;28;20535;-70
2023/01/20 09:08:16;;;;;;;29.50;13.87;;;1.80;99.90;;;;;;5110137;28;20455;-70
2023/01/20 09:10:42;;;;;;;38.20;15.63;;;1.90;99.90;;;;;;5095327;28;21025;-70
2023/01/20 09:13:08;;;;;;;22.27;13.03;;;1.90;99.90;;;;;;5074479;28;20486;-70
2023/01/20 09:15:34;;;;;;;31.23;14.80;;;1.90;99.90;;;;;;5087896;28;20456;-70
2023/01/20 09:17:59;;;;;;;23.73;13.60;;;1.90;99.90;;;;;;5089525;28;20309;-69
2023/01/20 09:20:27;;;;;;;22.73;12.00;;;1.90;99.90;;;;;;5083251;28;20771;-69
2023/01/20 09:22:53;;;;;;;18.63;9.20;;;1.90;99.90;;;;;;5088595;28;20214;-70
2023/01/20 09:25:19;;;;;;;19.50;10.90;;;1.90;99.90;;;;;;5088030;28;20489;-69
2023/01/20 09:27:45;;;;;;;28.90;10.53;;;1.90;99.90;;;;;;5086127;28;20469;-69
2023/01/20 09:30:11;;;;;;;20.37;10.23;;;2.00;99.90;;;;;;5089906;28;20400;-70
2023/01/20 09:32:37;;;;;;;21.63;10.00;;;2.00;99.90;;;;;;5067707;28;20921;-69
2023/01/20 09:35:03;;;;;;;19.27;10.47;;;2.00;99.90;;;;;;5085727;28;20250;-69
2023/01/20 09:47:18;;;;;;;9.77;5.90;;;2.00;99.90;;;;;;5065797;28;20449;-70
2023/01/20 09:55:44;;;;;;;9.20;6.00;;;2.00;99.90;;;;;;5043428;28;20516;-70
2023/01/20 09:58:33;;;;;;;5.93;4.10;;;2.00;99.90;;;;;;5051486;28;20479;-70
2023/01/20 10:01:18;;;;;;;8.37;5.37;;;1.90;99.90;;;;;;5058019;28;20496;-70
2023/01/20 10:03:58;;;;;;;9.20;5.70;;;1.90;99.90;;;;;;5064842;28;20446;-69
2023/01/20 10:06:38;;;;;;;7.70;4.70;;;1.90;99.90;;;;;;5082831;28;20455;-70
2023/01/20 10:09:45;;;;;;;8.13;5.13;;;1.90;99.90;;;;;;5062145;28;20528;-70
2023/01/20 10:12:35;;;;;;;6.97;5.30;;;1.70;99.90;;;;;;5057390;28;20548;-70
2023/01/20 10:15:13;;;;;;;13.40;6.57;;;1.70;99.90;;;;;;5055628;28;20450;-70
2023/01/20 10:17:50;;;;;;;13.10;5.90;;;1.60;99.90;;;;;;5075780;28;20448;-69
2023/01/20 10:20:33;;;;;;;11.37;5.90;;;1.70;99.90;;;;;;5067314;28;20503;-70
2023/01/20 10:23:18;;;;;;;9.17;5.20;;;1.90;99.90;;;;;;5076676;28;20484;-71
2023/01/20 10:26:08;;;;;;;22.03;9.70;;;1.90;99.90;;;;;;5068841;28;20445;-68
2023/01/20 10:28:54;;;;;;;8.53;6.30;;;1.70;99.90;;;;;;5043948;28;20495;-69
2023/01/20 10:31:25;;;;;;;8.83;6.13;;;1.60;99.90;;;;;;5061146;28;20603;-70
2023/01/20 10:33:54;;;;;;;16.07;7.10;;;1.70;99.90;;;;;;5074516;28;20456;-68
2023/01/20 10:36:30;;;;;;;9.93;6.27;;;1.90;99.90;;;;;;5086797;28;20505;-70
2023/01/20 10:39:09;;;;;;;12.87;7.07;;;2.00;99.90;;;;;;5091734;28;20460;-70
2023/01/20 10:41:47;;;;;;;9.33;5.63;;;2.10;99.90;;;;;;5076856;28;20463;-70
2023/01/20 10:44:14;;;;;;;13.20;7.63;;;2.10;99.90;;;;;;5060887;28;20541;-71
2023/01/20 10:47:01;;;;;;;12.60;7.10;;;2.10;99.90;;;;;;5067487;28;20880;-68
2023/01/20 10:50:13;;;;;;;12.80;8.20;;;2.10;99.90;;;;;;5082923;28;20998;-70
2023/01/20 10:53:17;;;;;;;9.20;7.07;;;2.20;99.90;;;;;;5032414;28;20881;-70
2023/01/20 10:56:21;;;;;;;10.30;5.77;;;2.40;99.90;;;;;;5095317;28;21023;-70
2023/01/20 10:58:47;;;;;;;8.77;5.63;;;2.60;99.90;;;;;;5055753;28;20498;-71
2023/01/20 11:01:16;;;;;;;8.80;5.37;;;2.50;99.90;;;;;;5069361;28;20485;-70
2023/01/20 11:03:44;;;;;;;6.50;4.60;;;2.40;99.90;;;;;;5079316;28;20218;-71
2023/01/20 11:06:21;;;;;;;9.60;4.90;;;2.60;99.90;;;;;;5086588;28;20475;-71
2023/01/20 11:08:48;;;;;;;14.40;5.27;;;2.60;99.90;;;;;;5077383;28;20517;-70
2023/01/20 11:11:23;;;;;;;31.10;14.87;;;2.70;99.90;;;;;;5101237;28;20459;-70
2023/01/20 11:13:50;;;;;;;38.00;17.47;;;2.80;99.90;;;;;;5073632;28;20440;-70
2023/01/20 11:16:25;;;;;;;38.00;18.80;;;2.70;99.90;;;;;;5084858;28;20452;-70
2023/01/20 11:19:02;;;;;;;47.37;22.80;;;2.80;99.90;;;;;;5089725;28;20475;-71
2023/01/20 11:21:35;;;;;;;54.33;29.20;;;2.70;99.90;;;;;;5057428;28;20475;-71
2023/01/20 11:24:03;;;;;;;57.43;26.37;;;2.80;99.90;;;;;;5091356;28;20467;-71
2023/01/20 11:26:35;;;;;;;56.60;28.37;;;2.80;99.90;;;;;;5055394;28;20537;-71
2023/01/20 11:29:09;;;;;;;43.73;19.77;;;3.00;99.90;;;;;;5086758;28;20591;-71
2023/01/20 11:31:50;;;;;;;20.23;12.07;;;3.10;99.90;;;;;;5074569;28;21016;-71
2023/01/20 11:34:30;;;;;;;16.40;9.70;;;3.20;99.90;;;;;;5100068;28;20832;-71
2023/01/20 11:37:05;;;;;;;11.57;6.73;;;3.10;99.90;;;;;;5062789;28;20467;-69
2023/01/20 11:40:00;;;;;;;8.43;5.47;;;3.20;99.90;;;;;;5083174;28;20513;-71
2023/01/20 11:42:41;;;;;;;13.53;4.20;;;3.20;99.90;;;;;;5070654;28;20457;-72
2023/01/20 11:45:29;;;;;;;5.17;3.40;;;3.10;99.90;;;;;;5073296;28;20451;-71
2023/01/20 11:48:05;;;;;;;5.87;3.60;;;3.10;99.90;;;;;;5062361;28;20469;-70
2023/01/20 11:50:34;;;;;;;6.87;4.13;;;3.30;99.90;;;;;;5089724;28;20891;-71
2023/01/20 11:53:20;;;;;;;4.53;3.57;;;3.50;99.90;;;;;;5104567;28;21024;-71
2023/01/20 11:55:53;;;;;;;5.27;3.67;;;3.60;99.90;;;;;;5080361;28;21026;-70
2023/01/20 11:58:22;;;;;;;6.73;4.07;;;3.60;99.90;;;;;;5072578;28;20552;-71
2023/01/20 12:00:50;;;;;;;3.63;3.20;;;3.80;99.90;;;;;;5073469;28;20451;-71
2023/01/20 12:03:40;;;;;;;6.07;3.40;;;3.90;99.90;;;;;;5088543;28;20457;-71
2023/01/20 12:06:18;;;;;;;7.70;4.90;;;3.90;99.90;;;;;;5072217;28;20456;-71
2023/01/20 12:09:09;;;;;;;5.93;4.00;;;3.90;99.90;;;;;;5065049;28;20449;-70
2023/01/20 12:11:56;;;;;;;7.50;4.27;;;4.00;99.90;;;;;;5074400;28;20460;-71
2023/01/20 12:14:31;;;;;;;5.83;3.40;;;4.10;99.90;;;;;;5089406;28;20465;-70
2023/01/20 12:17:08;;;;;;;4.77;3.60;;;4.10;99.90;;;;;;5089829;28;20460;-70
2023/01/20 12:19:40;;;;;;;10.43;3.80;;;4.10;99.90;;;;;;5078071;28;20464;-71
2023/01/20 12:22:13;;;;;;;7.90;5.17;;;4.20;99.90;;;;;;5092640;28;20474;-70
2023/01/20 12:27:34;;;;;;;5.60;3.40;;;4.40;99.90;;;;;;5068364;28;20510;-71
2023/01/20 12:30:09;;;;;;;7.80;3.17;;;4.50;99.90;;;;;;5079225;28;20551;-68
2023/01/20 12:32:39;;;;;;;4.10;3.40;;;4.50;99.90;;;;;;5070486;28;20557;-70
2023/01/20 12:35:05;;;;;;;8.10;3.60;;;4.50;99.90;;;;;;5066235;28;20964;-71
2023/01/20 12:37:54;;;;;;;8.67;3.70;;;4.20;99.90;;;;;;5063313;28;21079;-71
2023/01/20 12:40:46;;;;;;;4.07;3.00;;;4.20;99.90;;;;;;5078491;28;20519;-71
2023/01/20 12:43:37;;;;;;;4.57;3.57;;;4.20;99.90;;;;;;5068273;28;20453;-70
2023/01/20 12:46:15;;;;;;;4.47;2.90;;;4.10;99.90;;;;;;5070178;28;20445;-71
2023/01/20 12:49:18;;;;;;;4.83;3.20;;;3.90;99.90;;;;;;5070684;28;21036;-70
2023/01/20 12:52:11;;;;;;;6.70;3.60;;;3.70;99.90;;;;;;5087865;28;20460;-70
2023/01/20 12:54:56;;;;;;;9.50;4.77;;;3.60;99.90;;;;;;5067354;28;20472;-71
2023/01/20 12:57:57;;;;;;;8.70;7.13;;;3.60;99.90;;;;;;5070415;28;20454;-70
2023/01/20 13:00:49;;;;;;;10.37;6.60;;;3.80;99.90;;;;;;5086209;28;20472;-71
2023/01/20 13:03:36;;;;;;;17.47;10.57;;;3.60;99.90;;;;;;5097664;28;20494;-71
2023/01/20 13:06:08;;;;;;;9.70;8.50;;;3.60;99.90;;;;;;5091558;28;20461;-71
2023/01/20 13:08:40;;;;;;;6.53;5.30;;;3.50;99.90;;;;;;5085607;28;20458;-71
2023/01/20 13:11:46;;;;;;;5.97;3.80;;;3.60;99.90;;;;;;5089535;28;20532;-71
2023/01/20 13:14:12;;;;;;;10.77;3.30;;;3.70;99.90;;;;;;5071491;28;20456;-71
2023/01/20 13:16:43;;;;;;;2.60;2.40;;;3.70;99.90;;;;;;5080781;28;20452;-71
2023/01/20 13:19:18;;;;;;;4.50;2.93;;;3.50;99.90;;;;;;5060759;28;20223;-71
2023/01/20 13:21:44;;;;;;;4.73;2.80;;;3.40;99.90;;;;;;5083417;28;20477;-69
2023/01/20 13:24:23;;;;;;;3.30;3.00;;;3.50;99.90;;;;;;5071951;28;20478;-71
2023/01/20 13:26:49;;;;;;;2.80;2.60;;;3.40;99.90;;;;;;5076314;28;20240;-71
2023/01/20 13:29:42;;;;;;;2.30;2.10;;;3.60;99.90;;;;;;5049862;28;20457;-70
2023/01/20 13:32:36;;;;;;;3.27;2.70;;;3.60;99.90;;;;;;5066239;28;20457;-71